Time;durP1;ratioP1;P1;durP2;ratioP2;P2;SDS_P1;SDS_P2;PMS_P1;PMS_P2;Temp;Humidity;BMP_temperature;BMP_pressure;BME280_temperature;BME280_humidity;BME280_pressure;Samples;Min_cycle;Max_cycle;Signal;HPM_P1;HPM_P2
2022/05/08 00:00:56;;;;;;;2.55;2.15;;;13.70;99.90;;;;;;5113405;28;20634;-61
2022/05/08 00:03:22;;;;;;;2.97;2.17;;;13.70;99.90;;;;;;5113244;28;20181;-61
2022/05/08 00:05:47;;;;;;;3.00;2.38;;;13.80;99.90;;;;;;5113228;28;20200;-61
2022/05/08 00:08:14;;;;;;;3.53;2.40;;;13.70;99.90;;;;;;5115885;28;20177;-61
2022/05/08 00:10:40;;;;;;;3.97;2.70;;;13.70;99.90;;;;;;5117259;28;20173;-61
2022/05/08 00:13:06;;;;;;;2.88;2.35;;;13.70;99.90;;;;;;5099035;28;20182;-61
2022/05/08 00:15:32;;;;;;;3.78;2.80;;;13.70;99.90;;;;;;5117031;28;20170;-61
2022/05/08 00:17:58;;;;;;;3.60;2.50;;;13.70;99.90;;;;;;5117139;28;20539;-61
2022/05/08 00:20:23;;;;;;;3.70;2.58;;;13.60;99.90;;;;;;5117180;28;20174;-61
2022/05/08 00:22:49;;;;;;;3.38;2.65;;;13.70;99.90;;;;;;5116795;28;20208;-61
2022/05/08 00:25:15;;;;;;;4.95;2.90;;;13.70;99.90;;;;;;5116945;28;20203;-61
2022/05/08 00:27:40;;;;;;;4.53;2.70;;;13.60;99.90;;;;;;5116918;28;20176;-63
2022/05/08 00:30:07;;;;;;;3.58;2.88;;;13.60;99.90;;;;;;5116867;28;20161;-61
2022/05/08 00:32:32;;;;;;;2.90;2.30;;;13.60;99.90;;;;;;5116794;28;20185;-61
2022/05/08 00:34:58;;;;;;;3.50;2.55;;;13.60;99.90;;;;;;5116859;28;20272;-61
2022/05/08 00:37:24;;;;;;;3.35;2.58;;;13.50;99.90;;;;;;5115140;28;20218;-61
2022/05/08 00:39:49;;;;;;;4.47;2.58;;;13.50;99.90;;;;;;5116707;28;20185;-61
2022/05/08 00:42:15;;;;;;;4.53;3.28;;;13.40;99.90;;;;;;5116425;28;20169;-61
2022/05/08 00:44:40;;;;;;;4.38;3.22;;;13.40;99.90;;;;;;5116783;28;20230;-61
2022/05/08 00:47:06;;;;;;;4.22;2.95;;;13.50;99.90;;;;;;5116461;28;20233;-61
2022/05/08 00:49:32;;;;;;;3.85;2.90;;;13.50;99.90;;;;;;5116375;28;20635;-61
2022/05/08 00:51:59;;;;;;;4.22;3.60;;;13.60;99.90;;;;;;5116167;28;20180;-61
2022/05/08 00:54:26;;;;;;;4.78;3.42;;;13.50;99.90;;;;;;5116473;28;20164;-61
2022/05/08 00:56:53;;;;;;;4.63;3.10;;;13.50;99.90;;;;;;5116247;28;20204;-61
2022/05/08 00:59:19;;;;;;;3.47;2.88;;;13.50;99.90;;;;;;5116284;28;20531;-61
2022/05/08 01:01:45;;;;;;;3.95;2.85;;;13.50;99.90;;;;;;5116473;28;20522;-61
2022/05/08 01:04:10;;;;;;;4.65;3.15;;;13.50;99.90;;;;;;5114599;28;20281;-61
2022/05/08 01:06:36;;;;;;;3.35;2.80;;;13.50;99.90;;;;;;5115987;28;20209;-61
2022/05/08 01:09:03;;;;;;;3.30;2.65;;;13.50;99.90;;;;;;5114907;28;20193;-61
2022/05/08 01:11:29;;;;;;;3.30;3.00;;;13.50;99.90;;;;;;5116190;28;20177;-61
2022/05/08 01:13:54;;;;;;;4.80;3.22;;;13.50;99.90;;;;;;5115956;28;20576;-61
2022/05/08 01:16:21;;;;;;;5.70;3.33;;;13.50;99.90;;;;;;5116000;28;20201;-61
2022/05/08 01:18:49;;;;;;;3.72;3.10;;;13.60;99.90;;;;;;5115428;28;20606;-61
2022/05/08 01:21:17;;;;;;;3.75;2.97;;;13.60;99.90;;;;;;5115572;28;20260;-60
2022/05/08 01:23:43;;;;;;;5.45;3.03;;;13.50;99.90;;;;;;5114623;28;20181;-61
2022/05/08 01:26:09;;;;;;;4.03;3.20;;;13.60;99.90;;;;;;5115810;28;20264;-61
2022/05/08 01:28:35;;;;;;;6.55;3.75;;;13.60;99.90;;;;;;5115725;28;20784;-61
2022/05/08 01:31:00;;;;;;;3.42;2.90;;;13.60;99.90;;;;;;5115567;28;20578;-61
2022/05/08 01:33:27;;;;;;;4.45;2.80;;;13.60;99.90;;;;;;5115523;28;20256;-62
2022/05/08 01:35:53;;;;;;;4.00;3.03;;;13.70;99.90;;;;;;5115351;28;20239;-61
2022/05/08 01:38:21;;;;;;;4.75;3.53;;;13.60;99.90;;;;;;5115596;28;20174;-61
2022/05/08 01:40:48;;;;;;;4.15;3.20;;;13.60;99.90;;;;;;5115449;28;20180;-61
2022/05/08 01:43:14;;;;;;;3.42;2.92;;;13.60;99.90;;;;;;5115414;28;20200;-61
2022/05/08 01:45:40;;;;;;;4.30;3.28;;;13.70;99.90;;;;;;5115386;28;20172;-61
2022/05/08 01:48:22;;;;;;;4.30;3.10;;;13.60;99.90;;;;;;5115206;28;20177;-61
2022/05/08 01:50:52;;;;;;;2.75;2.50;;;13.50;99.90;;;;;;5114329;28;20648;-62
2022/05/08 01:53:19;;;;;;;3.25;2.50;;;13.50;99.90;;;;;;5115414;28;20166;-61
2022/05/08 01:55:47;;;;;;;3.05;2.63;;;13.50;99.90;;;;;;5114996;28;20249;-62
2022/05/08 01:58:12;;;;;;;3.03;2.40;;;13.50;99.90;;;;;;5114938;28;20653;-61
2022/05/08 02:00:38;;;;;;;3.85;3.30;;;13.50;99.90;;;;;;5114938;28;20173;-61
2022/05/08 02:03:05;;;;;;;4.13;3.00;;;13.40;99.90;;;;;;5114860;28;20177;-61
2022/05/08 02:05:31;;;;;;;4.00;2.92;;;13.30;99.90;;;;;;5114741;28;20589;-61
2022/05/08 02:07:59;;;;;;;3.80;2.38;;;13.30;99.90;;;;;;5114967;28;20165;-62
2022/05/08 02:10:25;;;;;;;3.92;2.90;;;13.40;99.90;;;;;;5114824;28;20229;-61
2022/05/08 02:12:51;;;;;;;5.50;2.90;;;13.30;99.90;;;;;;5114879;28;20298;-60
2022/05/08 02:15:17;;;;;;;3.67;2.90;;;13.30;99.90;;;;;;5114734;28;20173;-61
2022/05/08 02:17:44;;;;;;;2.85;2.53;;;13.30;99.90;;;;;;5114443;28;20223;-61
2022/05/08 02:20:11;;;;;;;3.83;2.83;;;13.30;99.90;;;;;;5114723;28;20161;-61
2022/05/08 02:22:37;;;;;;;4.18;2.55;;;13.30;99.90;;;;;;5114906;28;20170;-61
2022/05/08 02:25:04;;;;;;;3.78;2.88;;;13.20;99.90;;;;;;5114563;28;20169;-61
2022/05/08 02:27:41;;;;;;;3.40;2.40;;;13.20;99.90;;;;;;5114380;28;20219;-61
2022/05/08 02:30:09;;;;;;;4.07;2.65;;;13.20;99.90;;;;;;5113495;28;20603;-61
2022/05/08 02:32:36;;;;;;;2.95;2.55;;;13.20;99.90;;;;;;5113334;28;20169;-61
2022/05/08 02:35:03;;;;;;;4.03;2.85;;;13.10;99.90;;;;;;5114414;28;20166;-61
2022/05/08 02:37:28;;;;;;;3.63;2.42;;;13.10;99.90;;;;;;5113093;28;20209;-61
2022/05/08 02:39:54;;;;;;;4.03;2.60;;;13.20;99.90;;;;;;5114261;28;20174;-61
2022/05/08 02:42:20;;;;;;;3.95;2.95;;;13.10;99.90;;;;;;5114107;28;20588;-61
2022/05/08 02:44:46;;;;;;;4.22;2.97;;;12.90;99.90;;;;;;5114532;28;20173;-61
2022/05/08 02:47:11;;;;;;;3.15;2.67;;;12.80;99.90;;;;;;5113069;28;20260;-61
2022/05/08 02:49:37;;;;;;;3.47;2.75;;;12.80;99.90;;;;;;5114169;28;20645;-61
2022/05/08 02:52:03;;;;;;;3.42;2.85;;;12.80;99.90;;;;;;5112919;28;20177;-60
2022/05/08 02:54:29;;;;;;;3.63;2.80;;;12.70;99.90;;;;;;5114093;28;20234;-61
2022/05/08 02:59:38;;;;;;;3.63;2.58;;;12.70;99.90;;;;;;5114202;28;20233;-61
2022/05/08 03:02:04;;;;;;;4.75;3.22;;;12.70;99.90;;;;;;5113985;28;20177;-61
2022/05/08 03:04:30;;;;;;;3.05;2.75;;;12.70;99.90;;;;;;5113537;28;20193;-61
2022/05/08 03:06:55;;;;;;;4.20;3.15;;;12.70;99.90;;;;;;5113856;28;20177;-61
2022/05/08 03:09:21;;;;;;;3.20;2.75;;;12.70;99.90;;;;;;5113819;28;20178;-61
2022/05/08 03:11:47;;;;;;;3.88;2.80;;;12.80;99.90;;;;;;5113733;28;20173;-60
2022/05/08 03:14:12;;;;;;;3.40;2.88;;;12.80;99.90;;;;;;5114033;28;20522;-61
2022/05/08 03:16:38;;;;;;;2.92;2.70;;;12.70;99.90;;;;;;5113958;28;20223;-61
2022/05/08 03:19:04;;;;;;;4.88;3.15;;;12.70;99.90;;;;;;5113784;28;20185;-60
2022/05/08 03:21:30;;;;;;;3.85;3.17;;;12.70;99.90;;;;;;5113660;28;20267;-61
2022/05/08 03:23:56;;;;;;;3.28;2.90;;;12.80;99.90;;;;;;5113727;28;20261;-61
2022/05/08 03:26:22;;;;;;;3.67;3.05;;;12.70;99.90;;;;;;5113650;28;20184;-61
2022/05/08 03:28:48;;;;;;;4.32;3.13;;;12.70;99.90;;;;;;5113709;28;20631;-61
2022/05/08 03:31:13;;;;;;;4.35;2.70;;;12.70;99.90;;;;;;5112418;28;20280;-61
2022/05/08 03:33:40;;;;;;;3.58;3.20;;;12.70;99.90;;;;;;5113538;28;20177;-61
2022/05/08 03:36:07;;;;;;;5.15;3.13;;;12.70;99.90;;;;;;5112308;28;20254;-61
2022/05/08 03:38:33;;;;;;;4.07;3.20;;;12.60;99.90;;;;;;5113469;28;20183;-61
2022/05/08 03:40:59;;;;;;;4.80;3.25;;;12.60;99.90;;;;;;5114383;28;20204;-61
2022/05/08 03:43:25;;;;;;;3.92;2.90;;;12.60;99.90;;;;;;5117783;28;20204;-60
2022/05/08 03:45:51;;;;;;;4.63;3.40;;;12.50;99.90;;;;;;5117560;28;20624;-61
2022/05/08 03:48:18;;;;;;;4.57;4.10;;;12.50;99.90;;;;;;5116192;28;20173;-61
2022/05/08 03:50:44;;;;;;;4.72;3.55;;;12.50;99.90;;;;;;5117505;28;20174;-60
2022/05/08 03:53:09;;;;;;;3.67;3.22;;;12.40;99.90;;;;;;5117585;28;20174;-61
2022/05/08 03:55:35;;;;;;;4.90;3.88;;;12.50;99.90;;;;;;5117245;28;20173;-60
2022/05/08 03:58:01;;;;;;;4.05;3.00;;;12.50;99.90;;;;;;5117549;28;20180;-61
2022/05/08 04:00:27;;;;;;;4.03;3.38;;;12.40;99.90;;;;;;5117379;28;20165;-61
2022/05/08 04:02:54;;;;;;;5.05;3.67;;;12.40;99.90;;;;;;5117565;28;20177;-61
2022/05/08 04:05:19;;;;;;;5.05;3.55;;;12.40;99.90;;;;;;5117076;28;20221;-61
2022/05/08 04:07:45;;;;;;;5.10;3.67;;;12.40;99.90;;;;;;5115912;28;20261;-60
2022/05/08 04:10:12;;;;;;;5.05;3.85;;;12.40;99.90;;;;;;5117327;28;20169;-61
2022/05/08 04:12:39;;;;;;;5.07;3.67;;;12.30;99.90;;;;;;5117225;28;20261;-61
2022/05/08 04:16:15;;;;;;;5.35;3.45;;;12.30;99.90;;;;;;5117046;28;20177;-60
2022/05/08 04:17:52;;;;;;;4.20;3.17;;;12.30;99.90;;;;;;5116673;28;20829;-61
2022/05/08 04:20:17;;;;;;;4.85;3.67;;;12.40;99.90;;;;;;5116841;28;20209;-61
2022/05/08 04:25:27;;;;;;;4.90;3.80;;;12.30;99.90;;;;;;5117116;28;20238;-61
2022/05/08 04:27:53;;;;;;;4.47;3.42;;;12.30;99.90;;;;;;5117370;28;20572;-61
2022/05/08 04:30:18;;;;;;;5.70;3.72;;;12.30;99.90;;;;;;5116788;28;20201;-61
2022/05/08 04:32:44;;;;;;;5.40;3.72;;;12.30;99.90;;;;;;5116705;28;20264;-61
2022/05/08 04:35:10;;;;;;;4.15;3.75;;;12.30;99.90;;;;;;5115353;28;20640;-61
2022/05/08 04:37:35;;;;;;;4.43;3.97;;;12.30;99.90;;;;;;5116607;28;20213;-61
2022/05/08 04:40:01;;;;;;;6.05;4.07;;;12.30;99.90;;;;;;5116736;28;20183;-61
2022/05/08 04:42:27;;;;;;;5.10;3.80;;;12.40;99.90;;;;;;5116927;28;20174;-61
2022/05/08 04:44:54;;;;;;;4.53;3.38;;;12.40;99.90;;;;;;5116450;28;20683;-61
2022/05/08 04:47:20;;;;;;;5.70;4.25;;;12.30;99.90;;;;;;5116376;28;20177;-61
2022/05/08 04:49:46;;;;;;;4.43;3.60;;;12.30;99.90;;;;;;5116503;28;20184;-61
2022/05/08 04:52:12;;;;;;;4.20;3.63;;;12.30;99.90;;;;;;5115677;28;20177;-61
2022/05/08 04:54:37;;;;;;;4.68;3.65;;;12.30;99.90;;;;;;5116086;28;20176;-61
2022/05/08 04:57:03;;;;;;;5.80;3.58;;;12.20;99.90;;;;;;5116139;28;20244;-61
2022/05/08 04:59:29;;;;;;;4.82;3.50;;;12.20;99.90;;;;;;5116194;28;20177;-61
2022/05/08 05:01:55;;;;;;;5.30;3.50;;;12.20;99.90;;;;;;5116053;28;20177;-60
2022/05/08 05:04:21;;;;;;;5.65;3.83;;;12.20;99.90;;;;;;5115827;28;20193;-61
2022/05/08 05:06:46;;;;;;;4.43;3.28;;;12.30;99.90;;;;;;5116177;28;20550;-60
2022/05/08 05:09:12;;;;;;;4.80;3.70;;;12.30;99.90;;;;;;5116228;28;20242;-60
2022/05/08 05:11:37;;;;;;;4.05;3.33;;;12.20;99.90;;;;;;5116345;28;20258;-61
2022/05/08 05:14:03;;;;;;;4.93;3.40;;;12.30;99.90;;;;;;5116087;28;20181;-60
2022/05/08 05:16:29;;;;;;;3.80;3.38;;;12.30;99.90;;;;;;5115883;28;20209;-60
2022/05/08 05:18:54;;;;;;;4.65;3.60;;;12.20;99.90;;;;;;5115815;28;20169;-61
2022/05/08 05:21:20;;;;;;;4.88;3.58;;;12.20;99.90;;;;;;5097897;28;20184;-61
2022/05/08 05:23:46;;;;;;;4.90;4.13;;;12.30;99.90;;;;;;5115610;28;20327;-60
2022/05/08 05:26:11;;;;;;;4.65;3.22;;;12.30;99.90;;;;;;5115725;28;20188;-61
2022/05/08 05:28:37;;;;;;;4.55;3.38;;;12.30;99.90;;;;;;5115620;28;20169;-61
2022/05/08 05:31:03;;;;;;;4.50;3.58;;;12.30;99.90;;;;;;5115535;28;20169;-61
2022/05/08 05:33:28;;;;;;;4.03;3.63;;;12.40;99.90;;;;;;5115410;28;20196;-59
2022/05/08 05:35:54;;;;;;;5.00;3.65;;;12.40;99.90;;;;;;5115563;28;20205;-59
2022/05/08 05:38:20;;;;;;;4.38;3.45;;;12.30;99.90;;;;;;5114436;28;20550;-59
2022/05/08 05:40:45;;;;;;;4.03;3.45;;;12.40;99.90;;;;;;5115479;28;20173;-59
2022/05/08 05:43:11;;;;;;;4.88;3.70;;;12.40;99.90;;;;;;5115309;28;20177;-59
2022/05/08 05:45:39;;;;;;;4.90;3.50;;;12.50;99.90;;;;;;5115307;28;20274;-59
2022/05/08 05:48:05;;;;;;;4.93;3.22;;;12.60;99.90;;;;;;5113893;28;20255;-59
2022/05/08 05:50:31;;;;;;;5.50;3.50;;;12.50;99.90;;;;;;5113549;28;20253;-59
2022/05/08 05:52:56;;;;;;;4.05;3.10;;;12.40;99.90;;;;;;5115276;28;20172;-59
2022/05/08 05:55:22;;;;;;;5.55;3.20;;;12.50;99.90;;;;;;5115170;28;20173;-59
2022/05/08 05:57:48;;;;;;;5.82;4.25;;;12.50;99.90;;;;;;5115246;28;20213;-59
2022/05/08 06:00:17;;;;;;;4.43;3.03;;;12.40;99.90;;;;;;5114948;28;20173;-59
2022/05/08 06:02:44;;;;;;;4.25;3.10;;;12.50;99.90;;;;;;5114893;28;20172;-59
2022/05/08 06:05:11;;;;;;;5.53;3.22;;;12.50;99.90;;;;;;5114728;28;20193;-59
2022/05/08 06:07:38;;;;;;;4.07;3.13;;;12.50;99.90;;;;;;5114911;28;20188;-59
2022/05/08 06:10:09;;;;;;;6.00;3.17;;;12.60;99.90;;;;;;5114125;28;20231;-59
2022/05/08 06:12:35;;;;;;;3.78;2.90;;;12.50;99.90;;;;;;5114441;28;20169;-59
2022/05/08 06:15:01;;;;;;;6.63;3.78;;;12.50;99.90;;;;;;5113293;28;20224;-59
2022/05/08 06:17:27;;;;;;;4.40;3.20;;;12.60;99.90;;;;;;5112693;28;20232;-59
2022/05/08 06:19:53;;;;;;;3.17;2.80;;;12.60;99.90;;;;;;5112336;28;20172;-59
2022/05/08 06:22:19;;;;;;;3.13;2.80;;;12.70;99.90;;;;;;5114299;28;20542;-59
2022/05/08 06:24:45;;;;;;;2.80;2.50;;;12.80;99.90;;;;;;5114377;28;20173;-59
2022/05/08 06:27:10;;;;;;;4.20;2.60;;;12.90;99.90;;;;;;5113038;28;20638;-59
2022/05/08 06:29:36;;;;;;;2.97;2.53;;;13.00;99.90;;;;;;5113904;28;20552;-59
2022/05/08 06:32:03;;;;;;;5.28;2.90;;;13.00;99.90;;;;;;5113445;28;20166;-59
2022/05/08 06:34:29;;;;;;;5.43;3.13;;;13.00;99.90;;;;;;5114088;28;20177;-59
2022/05/08 06:36:54;;;;;;;5.97;2.88;;;12.90;99.90;;;;;;5113885;28;20224;-59
2022/05/08 06:39:21;;;;;;;4.93;3.08;;;12.90;99.90;;;;;;5114226;28;20199;-59
2022/05/08 06:41:46;;;;;;;5.53;2.67;;;12.90;99.90;;;;;;5113989;28;20226;-59
2022/05/08 06:44:15;;;;;;;3.53;2.42;;;13.00;99.90;;;;;;5113714;28;20181;-59
2022/05/08 06:46:40;;;;;;;3.70;2.47;;;13.10;99.90;;;;;;5113927;28;20185;-59
2022/05/08 06:49:07;;;;;;;4.95;3.15;;;13.10;99.90;;;;;;5114081;28;20238;-59
2022/05/08 06:51:36;;;;;;;4.03;2.88;;;13.20;99.90;;;;;;5114019;28;20165;-59
2022/05/08 06:54:02;;;;;;;3.88;2.67;;;13.30;99.90;;;;;;5113897;28;20185;-59
2022/05/08 06:56:31;;;;;;;3.72;2.50;;;13.50;99.90;;;;;;5114036;28;20208;-59
2022/05/08 07:01:43;;;;;;;3.80;2.58;;;13.40;99.90;;;;;;5112986;28;20200;-60
2022/05/08 07:04:10;;;;;;;2.70;2.40;;;13.30;99.90;;;;;;5112216;28;20694;-59
2022/05/08 07:06:37;;;;;;;3.60;2.47;;;13.50;99.90;;;;;;5113610;28;20512;-60
2022/05/08 07:09:09;;;;;;;3.30;2.25;;;13.60;99.90;;;;;;5112892;28;20223;-60
2022/05/08 07:11:37;;;;;;;5.65;2.70;;;13.70;99.90;;;;;;5113914;28;20208;-59
2022/05/08 07:14:03;;;;;;;3.13;2.13;;;13.60;99.90;;;;;;5112672;28;20204;-59
2022/05/08 07:16:29;;;;;;;2.60;2.10;;;13.60;99.90;;;;;;5111927;28;20201;-59
2022/05/08 07:18:55;;;;;;;3.65;2.45;;;13.70;99.90;;;;;;5113665;28;20227;-60
2022/05/08 07:21:20;;;;;;;5.63;2.42;;;13.80;99.90;;;;;;5113953;28;20165;-60
2022/05/08 07:23:47;;;;;;;3.75;2.45;;;13.90;99.90;;;;;;5112582;28;20507;-60
2022/05/08 07:26:13;;;;;;;4.72;2.10;;;14.10;99.90;;;;;;5113852;28;20535;-59
2022/05/08 07:28:39;;;;;;;4.40;2.45;;;14.10;99.90;;;;;;5112530;28;20244;-60
2022/05/08 07:31:05;;;;;;;3.95;2.00;;;14.40;99.90;;;;;;5113650;28;20169;-59
2022/05/08 07:33:34;;;;;;;3.30;2.65;;;14.50;99.90;;;;;;5113363;28;20184;-59
2022/05/08 07:36:13;;;;;;;5.78;2.80;;;14.70;99.90;;;;;;5113618;28;20209;-59
2022/05/08 07:38:44;;;;;;;3.75;2.42;;;14.80;99.90;;;;;;5113883;28;20177;-59
2022/05/08 07:41:17;;;;;;;3.85;2.00;;;15.00;99.90;;;;;;5113002;28;20169;-59
2022/05/08 07:43:47;;;;;;;4.55;1.92;;;15.10;99.90;;;;;;5113757;28;20252;-60
2022/05/08 07:46:14;;;;;;;4.55;1.95;;;15.20;99.90;;;;;;5112270;28;20174;-60
2022/05/08 07:48:40;;;;;;;3.35;2.08;;;15.00;99.90;;;;;;5113181;28;20231;-59
2022/05/08 07:51:05;;;;;;;3.72;1.95;;;15.20;99.90;;;;;;5113417;28;20623;-59
2022/05/08 07:53:33;;;;;;;3.38;1.90;;;15.10;99.90;;;;;;5113280;28;20176;-60
2022/05/08 07:55:59;;;;;;;2.35;1.73;;;15.30;99.90;;;;;;5113309;28;20197;-59
2022/05/08 07:58:33;;;;;;;2.92;1.90;;;15.60;99.90;;;;;;5113371;28;20173;-60
2022/05/08 08:00:59;;;;;;;3.22;1.70;;;15.50;99.90;;;;;;5113250;28;20242;-59
2022/05/08 08:03:28;;;;;;;4.35;1.92;;;15.70;99.90;;;;;;5113020;28;20195;-60
2022/05/08 08:05:54;;;;;;;4.10;2.13;;;15.70;99.90;;;;;;5112171;28;20212;-59
2022/05/08 08:08:23;;;;;;;2.65;1.85;;;15.90;99.90;;;;;;5110853;28;20185;-60
2022/05/08 08:10:53;;;;;;;1.77;1.40;;;15.80;99.90;;;;;;5112938;28;20174;-60
2022/05/08 08:13:22;;;;;;;3.22;1.60;;;15.50;99.90;;;;;;5113114;28;20204;-59
2022/05/08 08:15:48;;;;;;;1.58;1.20;;;15.50;99.90;;;;;;5112868;28;20214;-59
2022/05/08 08:18:15;;;;;;;3.70;1.88;;;15.70;99.90;;;;;;5112969;28;20245;-59
2022/05/08 08:20:42;;;;;;;2.72;1.73;;;15.90;99.90;;;;;;5113210;28;20165;-59
2022/05/08 08:23:08;;;;;;;5.25;1.92;;;16.20;99.90;;;;;;5113050;28;20177;-59
2022/05/08 08:25:34;;;;;;;3.28;1.60;;;16.30;99.90;;;;;;5112948;28;20169;-59
2022/05/08 08:27:59;;;;;;;3.28;1.50;;;16.50;99.90;;;;;;5095746;28;20569;-59
2022/05/08 08:30:25;;;;;;;3.17;1.40;;;16.50;99.90;;;;;;5116803;28;20214;-59
2022/05/08 08:32:51;;;;;;;3.03;1.55;;;16.70;99.90;;;;;;5116792;28;20544;-59
2022/05/08 08:35:17;;;;;;;1.98;1.45;;;16.70;99.90;;;;;;5116704;28;20558;-59
2022/05/08 08:37:42;;;;;;;2.22;1.55;;;16.80;99.90;;;;;;5116684;28;20286;-59
2022/05/08 08:40:09;;;;;;;4.10;1.52;;;16.90;99.90;;;;;;5116691;28;20264;-59
2022/05/08 08:42:41;;;;;;;3.38;1.42;;;17.00;99.90;;;;;;5116124;27;20642;-60
2022/05/08 08:48:00;;;;;;;2.50;1.52;;;17.40;99.90;;;;;;5116805;28;20234;-60
2022/05/08 08:50:27;;;;;;;2.45;1.40;;;17.40;99.90;;;;;;5116388;28;20165;-60
2022/05/08 08:52:57;;;;;;;2.88;1.48;;;17.50;99.70;;;;;;5116269;28;20638;-60
2022/05/08 08:55:23;;;;;;;2.05;1.45;;;17.50;99.80;;;;;;5114735;28;20165;-60
2022/05/08 08:57:50;;;;;;;2.58;1.30;;;17.60;98.20;;;;;;5115938;28;20666;-60
2022/05/08 09:00:18;;;;;;;1.70;1.08;;;17.70;97.40;;;;;;5116240;28;20177;-60
2022/05/08 09:02:44;;;;;;;3.78;1.33;;;17.40;95.70;;;;;;5114898;28;20173;-60
2022/05/08 09:05:10;;;;;;;4.43;1.40;;;17.50;97.70;;;;;;5116159;28;20330;-60
2022/05/08 09:07:41;;;;;;;3.38;1.60;;;17.50;98.00;;;;;;5115960;28;20207;-60
2022/05/08 09:10:07;;;;;;;4.30;1.48;;;17.30;95.00;;;;;;5115830;28;20170;-60
2022/05/08 09:12:33;;;;;;;3.53;1.80;;;17.50;97.50;;;;;;5115749;28;20173;-60
2022/05/08 09:14:59;;;;;;;2.85;1.33;;;17.50;96.60;;;;;;5116084;28;20184;-56
2022/05/08 09:17:42;;;;;;;1.65;1.15;;;17.40;97.50;;;;;;5114621;28;20205;-57
2022/05/08 09:20:24;;;;;;;3.30;1.40;;;17.50;96.30;;;;;;5115897;27;20535;-61
2022/05/08 09:23:01;;;;;;;3.80;1.13;;;17.50;96.90;;;;;;5114832;28;20535;-61
2022/05/08 09:25:43;;;;;;;2.58;1.60;;;17.60;96.10;;;;;;5115771;28;20261;-62
2022/05/08 09:28:13;;;;;;;3.40;1.60;;;17.70;96.90;;;;;;5115654;28;20260;-61
2022/05/08 09:31:06;;;;;;;2.83;1.45;;;17.80;96.80;;;;;;5115395;28;20165;-60
2022/05/08 09:33:49;;;;;;;3.00;1.42;;;17.70;96.90;;;;;;5115664;28;20250;-61
2022/05/08 09:36:19;;;;;;;2.97;1.20;;;17.90;96.80;;;;;;5115515;28;20232;-62
2022/05/08 09:38:47;;;;;;;1.73;1.13;;;18.00;97.40;;;;;;5115249;28;20230;-63
2022/05/08 09:41:15;;;;;;;2.72;1.20;;;18.30;95.00;;;;;;5115066;28;20161;-64
2022/05/08 09:43:41;;;;;;;4.13;1.48;;;18.40;96.20;;;;;;5114956;28;20174;-63
2022/05/08 09:46:08;;;;;;;3.55;1.40;;;18.40;94.00;;;;;;5114663;28;20743;-63
2022/05/08 09:48:34;;;;;;;2.47;1.30;;;18.40;93.10;;;;;;5115262;28;20263;-63
2022/05/08 09:51:05;;;;;;;2.47;1.30;;;18.30;93.00;;;;;;5115283;28;20281;-64
2022/05/08 09:53:33;;;;;;;2.20;1.48;;;18.10;90.90;;;;;;5115055;28;20224;-64
2022/05/08 09:56:04;;;;;;;1.50;1.10;;;18.20;91.40;;;;;;5115028;28;20205;-64
2022/05/08 09:58:31;;;;;;;3.58;1.55;;;18.20;92.00;;;;;;5115526;28;20183;-64
2022/05/08 10:00:57;;;;;;;2.92;1.25;;;18.30;93.30;;;;;;5114889;28;20180;-64
2022/05/08 10:03:23;;;;;;;2.95;1.50;;;18.60;94.60;;;;;;5115027;28;20169;-64
2022/05/08 10:05:50;;;;;;;2.80;1.58;;;18.60;92.90;;;;;;5114831;28;20213;-64
2022/05/08 10:08:21;;;;;;;4.13;1.33;;;18.80;89.90;;;;;;5114719;28;20177;-64
2022/05/08 10:13:58;;;;;;;1.98;1.23;;;18.60;88.70;;;;;;5115017;28;20187;-64
2022/05/08 10:16:43;;;;;;;3.08;1.35;;;18.60;89.90;;;;;;5114629;28;20200;-64
2022/05/08 10:19:18;;;;;;;2.78;0.80;;;18.60;84.00;;;;;;5114795;28;20209;-64
2022/05/08 10:22:10;;;;;;;1.40;1.00;;;18.60;90.50;;;;;;5114702;28;20202;-64
2022/05/08 10:24:38;;;;;;;1.45;1.00;;;18.60;86.20;;;;;;5112280;28;20185;-64
2022/05/08 10:27:15;;;;;;;1.70;0.93;;;18.90;88.20;;;;;;5114383;28;20189;-64
2022/05/08 10:29:50;;;;;;;1.02;0.80;;;19.00;82.00;;;;;;5114707;28;20636;-64
2022/05/08 10:32:31;;;;;;;1.58;0.60;;;19.10;82.90;;;;;;5114314;28;20172;-64
2022/05/08 10:35:11;;;;;;;1.65;0.90;;;19.20;83.30;;;;;;5113026;28;20523;-63
2022/05/08 10:37:41;;;;;;;0.90;0.40;;;19.20;79.80;;;;;;5114462;28;20208;-64
2022/05/08 10:40:30;;;;;;;2.83;1.08;;;19.30;77.10;;;;;;5114459;28;20259;-64
2022/05/08 10:43:00;;;;;;;2.15;0.80;;;19.30;82.20;;;;;;5114454;28;20165;-64
2022/05/08 10:45:36;;;;;;;1.98;0.68;;;19.40;79.80;;;;;;5114249;28;20184;-63
2022/05/08 10:48:07;;;;;;;2.30;0.70;;;19.30;78.60;;;;;;5114173;28;20584;-64
2022/05/08 10:50:33;;;;;;;1.42;1.00;;;19.40;80.20;;;;;;5113705;28;20177;-65
2022/05/08 10:52:58;;;;;;;1.27;0.80;;;19.50;76.50;;;;;;5114207;28;20176;-64
2022/05/08 10:55:25;;;;;;;0.70;0.65;;;19.60;76.60;;;;;;5114068;28;20216;-64
2022/05/08 10:57:53;;;;;;;1.48;0.60;;;19.70;77.10;;;;;;5113850;28;20303;-63
2022/05/08 11:00:27;;;;;;;2.83;0.80;;;19.60;74.70;;;;;;5113802;28;20699;-64
2022/05/08 11:02:56;;;;;;;1.65;0.90;;;19.60;73.40;;;;;;5114058;28;20173;-64
2022/05/08 11:05:23;;;;;;;1.08;0.75;;;19.60;76.00;;;;;;5113716;28;20193;-64
2022/05/08 11:08:03;;;;;;;2.25;0.80;;;19.70;76.90;;;;;;5113969;28;20519;-64
2022/05/08 11:10:34;;;;;;;0.50;0.50;;;19.70;74.10;;;;;;5113884;28;20184;-63
2022/05/08 11:13:09;;;;;;;1.20;0.70;;;19.80;75.80;;;;;;5113750;28;20174;-64
2022/05/08 11:15:55;;;;;;;1.08;0.95;;;19.90;78.20;;;;;;5113810;28;20517;-64
2022/05/08 11:18:26;;;;;;;0.75;0.57;;;20.20;75.40;;;;;;5113938;28;20266;-64
2022/05/08 11:21:03;;;;;;;1.17;0.80;;;20.10;72.80;;;;;;5113730;28;20192;-64
2022/05/08 11:23:34;;;;;;;1.00;0.60;;;20.10;73.70;;;;;;5113726;28;20176;-64
2022/05/08 11:26:02;;;;;;;0.95;0.70;;;20.20;70.10;;;;;;5113770;28;20181;-64
2022/05/08 11:28:29;;;;;;;2.45;0.80;;;20.10;69.10;;;;;;5113830;28;20176;-64
2022/05/08 11:30:59;;;;;;;1.10;0.75;;;20.00;71.00;;;;;;5112299;28;20182;-64
2022/05/08 11:36:25;;;;;;;1.67;0.85;;;20.20;67.10;;;;;;5113883;28;20224;-64
2022/05/08 11:38:55;;;;;;;1.02;0.60;;;20.40;70.50;;;;;;5113533;28;20175;-64
2022/05/08 11:41:33;;;;;;;1.08;0.70;;;20.60;70.90;;;;;;5113754;28;20169;-64
2022/05/08 11:44:02;;;;;;;1.00;0.73;;;20.70;68.20;;;;;;5114066;28;20164;-65
2022/05/08 11:46:38;;;;;;;2.10;0.93;;;20.50;65.20;;;;;;5113440;28;20626;-64
2022/05/08 11:49:15;;;;;;;0.50;0.50;;;20.50;63.90;;;;;;5113608;28;20230;-64
2022/05/08 11:52:01;;;;;;;1.92;1.05;;;20.50;65.40;;;;;;5113415;28;20181;-64
2022/05/08 11:54:38;;;;;;;0.93;0.73;;;20.20;63.50;;;;;;5113398;28;20169;-64
2022/05/08 11:57:19;;;;;;;1.77;1.00;;;20.10;61.80;;;;;;5113510;28;20295;-64
2022/05/08 11:59:47;;;;;;;3.42;0.90;;;20.10;65.10;;;;;;5113530;28;20177;-64
2022/05/08 12:02:14;;;;;;;2.83;1.08;;;20.10;62.60;;;;;;5114558;28;20298;-64
2022/05/08 12:04:41;;;;;;;1.63;0.80;;;19.90;65.90;;;;;;5117328;28;20530;-64
2022/05/08 12:07:12;;;;;;;0.95;0.60;;;19.90;65.40;;;;;;5117097;28;20208;-64
2022/05/08 12:09:52;;;;;;;1.48;0.90;;;20.00;66.90;;;;;;5117202;28;20709;-64
2022/05/08 12:12:31;;;;;;;0.88;0.85;;;20.10;66.20;;;;;;5117576;28;20255;-64
2022/05/08 12:15:12;;;;;;;2.67;1.15;;;20.20;66.20;;;;;;5117370;28;20188;-64
2022/05/08 12:17:44;;;;;;;1.25;0.90;;;20.20;67.30;;;;;;5115849;28;20566;-64
2022/05/08 12:20:17;;;;;;;1.45;0.80;;;20.30;66.80;;;;;;5117179;28;20646;-65
2022/05/08 12:22:44;;;;;;;0.95;0.70;;;20.50;65.90;;;;;;5116990;28;20538;-65
2022/05/08 12:25:11;;;;;;;2.10;0.68;;;20.50;64.40;;;;;;5116970;28;20165;-65
2022/05/08 12:27:37;;;;;;;0.98;0.73;;;20.60;65.30;;;;;;5116877;28;20177;-64
2022/05/08 12:30:06;;;;;;;2.70;0.90;;;20.60;63.40;;;;;;5116731;28;20627;-64
2022/05/08 12:32:35;;;;;;;0.98;0.60;;;20.40;67.60;;;;;;5116965;28;20172;-64
2022/05/08 12:35:01;;;;;;;1.70;0.70;;;20.30;66.20;;;;;;5116604;28;20181;-64
2022/05/08 12:37:27;;;;;;;1.70;0.90;;;20.40;63.40;;;;;;5116712;28;20258;-64
2022/05/08 12:39:52;;;;;;;0.88;0.70;;;20.40;64.50;;;;;;5116619;28;20219;-64
2022/05/08 12:42:18;;;;;;;1.55;0.77;;;20.30;64.90;;;;;;5116591;28;20169;-64
2022/05/08 12:44:44;;;;;;;1.83;0.80;;;20.30;66.10;;;;;;5116876;28;20203;-64
2022/05/08 12:47:11;;;;;;;0.90;0.60;;;20.50;67.30;;;;;;5116576;28;20278;-65
2022/05/08 12:49:38;;;;;;;1.90;0.77;;;20.60;65.10;;;;;;5116507;28;20174;-64
2022/05/08 12:52:06;;;;;;;1.95;0.68;;;20.70;68.50;;;;;;5116345;28;20630;-64
2022/05/08 12:54:32;;;;;;;1.42;0.80;;;20.70;65.40;;;;;;5116331;28;20196;-64
2022/05/08 12:56:59;;;;;;;1.83;0.82;;;20.60;66.30;;;;;;5116159;28;20721;-64
2022/05/08 12:59:43;;;;;;;1.27;0.60;;;20.80;65.20;;;;;;5116612;28;20250;-64
2022/05/08 13:02:11;;;;;;;1.88;0.80;;;20.70;61.80;;;;;;5116429;28;20173;-64
2022/05/08 13:04:37;;;;;;;1.60;1.10;;;20.30;63.30;;;;;;5116360;28;20193;-65
2022/05/08 13:07:03;;;;;;;0.93;0.60;;;20.60;63.70;;;;;;5114972;28;20319;-64
2022/05/08 13:09:29;;;;;;;1.95;0.73;;;20.40;65.30;;;;;;5116073;28;20648;-64